Time;durP1;ratioP1;P1;durP2;ratioP2;P2;SDS_P1;SDS_P2;PMS_P1;PMS_P2;Temp;Humidity;BMP_temperature;BMP_pressure;BME280_temperature;BME280_humidity;BME280_pressure;Samples;Min_cycle;Max_cycle;Signal;HPM_P1;HPM_P2
2024/02/03 00:01:44;;;;;;;0.20;0.20;;;;;;;4.11;63.61;102278.78;5029910;28;20029;-92
2024/02/03 00:04:10;;;;;;;0.20;0.20;;;;;;;4.12;63.44;102283.06;5031548;28;20530;-92
2024/02/03 00:06:35;;;;;;;0.20;0.20;;;;;;;4.08;63.43;102263.41;5013985;28;20033;-92
2024/02/03 00:09:01;;;;;;;0.20;0.20;;;;;;;4.12;63.48;102266.81;4997638;28;20033;-92
2024/02/03 00:11:26;;;;;;;0.20;0.20;;;;;;;4.13;62.75;102265.97;5030279;28;20120;-92
2024/02/03 00:13:52;;;;;;;0.20;0.20;;;;;;;4.17;63.10;102262.59;4997668;28;20045;-92
2024/02/03 00:16:18;;;;;;;0.20;0.20;;;;;;;4.23;63.11;102255.78;5013562;28;20120;-91
2024/02/03 00:18:43;;;;;;;0.20;0.20;;;;;;;4.15;63.31;102243.81;4997448;28;20034;-92
2024/02/03 00:21:10;;;;;;;0.20;0.20;;;;;;;4.07;63.35;102246.34;5016642;28;20172;-92
2024/02/03 00:23:36;;;;;;;0.20;0.20;;;;;;;3.96;63.81;102230.94;5017479;28;20182;-91
2024/02/03 00:26:01;;;;;;;0.20;0.20;;;;;;;4.03;64.15;102244.59;5001120;28;20544;-92
2024/02/03 00:28:27;;;;;;;0.20;0.20;;;;;;;4.03;64.16;102247.16;5033555;28;20040;-91
2024/02/03 00:30:52;;;;;;;0.20;0.20;;;;;;;3.97;64.27;102247.16;5033553;28;20036;-91
2024/02/03 00:33:18;;;;;;;0.20;0.20;;;;;;;3.90;64.58;102237.72;5000947;28;20438;-91
2024/02/03 00:35:43;;;;;;;0.20;0.20;;;;;;;3.89;64.74;102231.75;5033726;28;20029;-92
2024/02/03 00:38:09;;;;;;;0.20;0.20;;;;;;;3.91;64.83;102234.31;5033627;28;20030;-92
2024/02/03 00:40:35;;;;;;;0.20;0.20;;;;;;;3.88;65.08;102230.03;5033896;28;20029;-92
2024/02/03 00:43:00;;;;;;;0.20;0.20;;;;;;;3.90;65.10;102228.34;5033486;28;20034;-92
2024/02/03 00:45:26;;;;;;;0.20;0.20;;;;;;;3.84;65.15;102222.34;5016784;28;20053;-91
2024/02/03 00:47:51;;;;;;;0.20;0.20;;;;;;;3.85;64.75;102199.31;5034430;28;20467;-92
2024/02/03 00:50:17;;;;;;;0.20;0.20;;;;;;;4.02;64.66;102237.75;5033661;28;20518;-92
2024/02/03 00:52:42;;;;;;;0.20;0.20;;;;;;;4.01;64.56;102239.47;5016937;28;20112;-91
2024/02/03 00:55:09;;;;;;;0.20;0.20;;;;;;;4.03;64.36;102232.69;5017331;28;20103;-91
2024/02/03 00:57:35;;;;;;;0.20;0.20;;;;;;;3.88;64.33;102208.69;5017053;28;20026;-92
2024/02/03 01:00:02;;;;;;;0.20;0.20;;;;;;;4.03;64.57;102235.25;5016601;28;20112;-91
2024/02/03 01:02:28;;;;;;;0.20;0.20;;;;;;;3.95;64.78;102223.25;5034431;28;20030;-92
2024/02/03 01:04:54;;;;;;;0.20;0.20;;;;;;;4.02;64.78;102230.09;5000462;28;20036;-92
2024/02/03 01:07:19;;;;;;;0.20;0.20;;;;;;;4.00;64.41;102239.47;5000571;28;20522;-92
2024/02/03 01:09:45;;;;;;;0.20;0.20;;;;;;;3.98;64.78;102236.06;5016925;28;20025;-92
2024/02/03 01:12:10;;;;;;;0.20;0.20;;;;;;;3.88;65.07;102226.63;5017069;28;20109;-91
2024/02/03 01:14:36;;;;;;;0.20;0.20;;;;;;;3.86;65.08;102233.44;5032800;28;20025;-92
2024/02/03 01:17:04;;;;;;;0.20;0.20;;;;;;;3.86;65.16;102243.69;5016580;28;20032;-91
2024/02/03 01:19:29;;;;;;;0.20;0.20;;;;;;;3.69;65.52;102208.63;5016812;28;20080;-92
2024/02/03 01:21:55;;;;;;;0.20;0.20;;;;;;;3.84;65.35;102227.47;5032749;28;20519;-91
2024/02/03 01:24:20;;;;;;;0.20;0.20;;;;;;;3.82;65.28;102229.16;5016382;28;20053;-92
2024/02/03 01:26:46;;;;;;;0.20;0.20;;;;;;;3.76;65.20;102204.41;5016420;28;20036;-91
2024/02/03 01:29:12;;;;;;;0.20;0.20;;;;;;;3.90;65.02;102223.22;5032675;28;20053;-91
2024/02/03 01:31:37;;;;;;;0.20;0.20;;;;;;;3.78;65.38;102222.31;5033951;28;20446;-91
2024/02/03 01:34:03;;;;;;;0.20;0.20;;;;;;;3.80;65.81;102215.50;5017207;28;20399;-92
2024/02/03 01:36:28;;;;;;;0.20;0.20;;;;;;;3.85;65.22;102208.69;5016483;28;20043;-92
2024/02/03 01:38:54;;;;;;;0.20;0.20;;;;;;;3.74;65.60;102195.84;5016237;28;20116;-92
2024/02/03 01:41:20;;;;;;;0.20;0.20;;;;;;;3.71;65.68;102198.38;5032367;28;20060;-90
2024/02/03 01:43:45;;;;;;;0.20;0.20;;;;;;;3.60;65.79;102192.38;5015975;28;20108;-92
2024/02/03 01:46:11;;;;;;;0.10;0.10;;;;;;;3.64;65.94;102187.28;5015948;28;20033;-91
2024/02/03 01:48:38;;;;;;;0.10;0.10;;;;;;;3.61;65.97;102194.94;5032629;28;20108;-92
2024/02/03 01:51:03;;;;;;;0.20;0.20;;;;;;;3.67;65.89;102189.00;5032422;28;20031;-91
2024/02/03 01:53:29;;;;;;;0.20;0.20;;;;;;;3.60;65.89;102188.09;4999579;28;20037;-92
2024/02/03 01:55:55;;;;;;;0.20;0.20;;;;;;;3.65;65.70;102176.19;5015827;28;20037;-90
2024/02/03 01:58:21;;;;;;;0.20;0.20;;;;;;;3.65;65.84;102176.19;4999356;28;20036;-91
2024/02/03 02:00:46;;;;;;;0.17;0.17;;;;;;;3.64;66.17;102169.38;5032289;28;20108;-91
2024/02/03 02:03:15;;;;;;;0.20;0.20;;;;;;;3.64;65.43;102159.13;5015386;28;20033;-92
2024/02/03 02:05:40;;;;;;;0.20;0.20;;;;;;;3.64;66.07;102165.97;5015599;28;20034;-92
2024/02/03 02:08:06;;;;;;;0.20;0.20;;;;;;;3.56;65.98;102144.59;4999264;28;20104;-91
2024/02/03 02:10:32;;;;;;;0.17;0.17;;;;;;;3.66;65.77;102152.31;5033074;28;20407;-92
2024/02/03 02:12:57;;;;;;;0.20;0.20;;;;;;;3.61;65.58;102153.97;5031830;28;21201;-92
2024/02/03 02:15:23;;;;;;;0.20;0.20;;;;;;;3.66;65.72;102143.78;5015661;28;20438;-91
2024/02/03 02:17:55;;;;;;;0.20;0.20;;;;;;;3.71;65.57;102150.59;5032093;28;20419;-92
2024/02/03 02:20:21;;;;;;;0.20;0.20;;;;;;;3.80;65.28;102148.94;5016043;28;20117;-90
2024/02/03 02:22:46;;;;;;;0.20;0.20;;;;;;;3.83;64.85;102133.56;5015298;28;20298;-92
2024/02/03 02:25:12;;;;;;;0.20;0.20;;;;;;;3.87;65.07;102128.47;5031754;28;20026;-91
2024/02/03 02:27:39;;;;;;;0.20;0.20;;;;;;;3.99;64.39;102137.91;5015044;28;20475;-92
2024/02/03 02:30:05;;;;;;;0.20;0.20;;;;;;;4.01;64.51;102133.63;5015303;28;20030;-92
2024/02/03 02:32:31;;;;;;;0.20;0.20;;;;;;;3.90;63.76;102110.56;5015160;28;20057;-92
2024/02/03 02:34:56;;;;;;;0.20;0.20;;;;;;;4.09;63.75;102136.22;5031531;28;20064;-93
2024/02/03 02:37:22;;;;;;;0.20;0.20;;;;;;;4.14;63.58;102140.50;5031584;28;20021;-91
2024/02/03 02:39:47;;;;;;;0.20;0.20;;;;;;;4.06;63.35;102121.69;4998674;28;20064;-92
2024/02/03 02:42:13;;;;;;;0.20;0.20;;;;;;;4.14;63.45;102134.53;5031041;28;20124;-91
2024/02/03 02:44:39;;;;;;;0.20;0.20;;;;;;;4.13;63.44;102132.78;5015212;28;20026;-92
2024/02/03 02:47:04;;;;;;;0.20;0.20;;;;;;;4.09;63.55;102126.81;5031496;28;20025;-90
2024/02/03 02:49:30;;;;;;;0.20;0.20;;;;;;;4.03;63.01;102120.00;5032791;28;20479;-92
2024/02/03 02:51:55;;;;;;;0.20;0.20;;;;;;;4.06;63.03;102126.81;5031963;28;20411;-92
2024/02/03 02:54:21;;;;;;;0.20;0.20;;;;;;;4.08;63.25;102125.09;5017427;28;20109;-91
2024/02/03 02:56:47;;;;;;;0.20;0.20;;;;;;;4.11;63.57;102124.25;4998529;28;20022;-92
2024/02/03 02:59:12;;;;;;;0.10;0.10;;;;;;;4.01;63.99;102138.75;5014943;28;20029;-92
2024/02/03 03:01:38;;;;;;;0.20;0.20;;;;;;;3.90;64.48;102119.94;5014585;28;20537;-91
2024/02/03 03:04:03;;;;;;;0.20;0.20;;;;;;;3.91;64.65;102126.78;5031038;28;20037;-92
2024/02/03 03:06:29;;;;;;;0.20;0.20;;;;;;;4.07;64.52;102137.91;5031041;28;20029;-92
2024/02/03 03:08:54;;;;;;;0.20;0.20;;;;;;;4.01;64.31;102123.38;4998182;28;20068;-92
2024/02/03 03:11:20;;;;;;;0.20;0.20;;;;;;;4.09;64.35;102131.09;5014223;28;20113;-91
2024/02/03 03:13:45;;;;;;;0.20;0.20;;;;;;;4.13;64.40;102123.44;4998105;28;20071;-92
2024/02/03 03:16:11;;;;;;;0.20;0.20;;;;;;;4.25;64.11;102123.44;5014625;28;20033;-92
2024/02/03 03:18:40;;;;;;;0.20;0.20;;;;;;;4.23;64.12;102114.91;4998106;28;20531;-93
2024/02/03 03:21:07;;;;;;;0.20;0.20;;;;;;;4.28;64.07;102108.06;4997904;28;20045;-91
2024/02/03 03:23:32;;;;;;;0.10;0.10;;;;;;;4.42;63.92;102125.97;5014296;28;20036;-92
2024/02/03 03:25:59;;;;;;;0.20;0.20;;;;;;;4.52;63.54;102126.84;5014224;28;20029;-93
2024/02/03 03:28:24;;;;;;;0.20;0.20;;;;;;;4.53;63.48;102120.91;4997979;28;20030;-92
2024/02/03 03:30:50;;;;;;;0.20;0.20;;;;;;;4.59;63.18;102118.31;4998095;28;20396;-92
2024/02/03 03:33:15;;;;;;;0.20;0.20;;;;;;;4.77;62.68;102115.72;4998130;28;20032;-91
2024/02/03 03:35:41;;;;;;;0.20;0.20;;;;;;;4.80;62.63;102102.91;5014419;28;20099;-92
2024/02/03 03:38:07;;;;;;;0.20;0.20;;;;;;;4.89;61.89;102102.88;5014370;28;20026;-92
2024/02/03 03:40:33;;;;;;;0.20;0.20;;;;;;;4.82;62.17;102108.91;4997643;28;20040;-93
2024/02/03 03:42:58;;;;;;;0.20;0.20;;;;;;;4.97;61.76;102104.59;5014029;28;20037;-92
2024/02/03 03:45:24;;;;;;;0.20;0.20;;;;;;;5.05;61.23;102105.44;5013953;28;20029;-91
2024/02/03 03:47:50;;;;;;;0.20;0.20;;;;;;;5.07;61.07;102099.44;5030712;28;20033;-92
2024/02/03 03:50:15;;;;;;;0.20;0.20;;;;;;;5.06;61.05;102099.44;5014270;28;20030;-91
2024/02/03 03:52:41;;;;;;;0.20;0.20;;;;;;;5.12;60.72;102096.88;4997800;28;20037;-92
2024/02/03 03:55:07;;;;;;;0.20;0.20;;;;;;;5.15;60.83;102090.00;5017120;28;20037;-91
2024/02/03 03:57:32;;;;;;;0.20;0.20;;;;;;;5.18;60.37;102084.84;5034587;28;20056;-92
2024/02/03 03:59:58;;;;;;;0.20;0.20;;;;;;;5.20;59.92;102084.84;5034663;28;20017;-92
2024/02/03 04:02:23;;;;;;;0.20;0.20;;;;;;;5.26;60.08;102091.69;5034678;28;20029;-91
2024/02/03 04:04:49;;;;;;;0.20;0.20;;;;;;;5.22;60.22;102090.00;5018082;28;20025;-92
2024/02/03 04:07:14;;;;;;;0.20;0.20;;;;;;;5.26;60.19;102091.69;5034317;28;20060;-91
2024/02/03 04:09:47;;;;;;;0.20;0.20;;;;;;;5.20;60.05;102087.41;5017695;28;20071;-92
2024/02/03 04:12:14;;;;;;;0.20;0.20;;;;;;;5.25;60.57;102085.69;5018694;28;20028;-92
2024/02/03 04:14:39;;;;;;;0.20;0.20;;;;;;;5.16;60.59;102076.31;5034310;28;20033;-91
2024/02/03 04:17:05;;;;;;;0.20;0.20;;;;;;;5.30;60.17;102083.09;5034448;28;20495;-91
2024/02/03 04:19:30;;;;;;;0.20;0.20;;;;;;;5.25;60.07;102070.31;5034312;28;20029;-91
2024/02/03 04:21:56;;;;;;;0.20;0.20;;;;;;;5.34;59.78;102085.66;5033586;28;20060;-91
2024/02/03 04:24:21;;;;;;;0.20;0.20;;;;;;;5.33;59.90;102083.97;5033955;28;20029;-91
2024/02/03 04:26:47;;;;;;;0.20;0.20;;;;;;;5.40;59.65;102083.06;5033931;28;20034;-91
2024/02/03 04:29:13;;;;;;;0.20;0.20;;;;;;;5.50;59.45;102075.31;5033898;28;20032;-92
2024/02/03 04:31:44;;;;;;;0.20;0.20;;;;;;;5.62;58.88;102080.41;5017383;28;20033;-92
2024/02/03 04:34:10;;;;;;;0.20;0.20;;;;;;;5.56;59.22;102076.16;5002010;28;20053;-91
2024/02/03 04:36:35;;;;;;;0.20;0.20;;;;;;;5.56;58.95;102065.03;5017020;28;20561;-91
2024/02/03 04:39:01;;;;;;;0.10;0.10;;;;;;;5.60;59.23;102066.69;5033768;28;20522;-92
2024/02/03 04:41:26;;;;;;;0.20;0.20;;;;;;;5.58;58.78;102065.88;5017081;28;20029;-92
2024/02/03 04:43:52;;;;;;;0.20;0.20;;;;;;;5.56;58.72;102060.75;5034421;28;20059;-92
2024/02/03 04:46:18;;;;;;;0.20;0.20;;;;;;;5.57;58.51;102067.59;5017263;28;20518;-92
2024/02/03 04:48:47;;;;;;;0.20;0.20;;;;;;;5.54;58.45;102051.34;5017305;28;20029;-92
2024/02/03 04:51:13;;;;;;;0.20;0.20;;;;;;;5.61;58.24;102064.16;5033385;28;20029;-92
2024/02/03 04:53:39;;;;;;;0.20;0.20;;;;;;;5.59;58.36;102065.00;5017182;28;20025;-91
2024/02/03 04:56:09;;;;;;;0.20;0.20;;;;;;;5.59;58.35;102065.00;5000617;28;20124;-92
2024/02/03 04:58:34;;;;;;;0.20;0.20;;;;;;;5.62;57.98;102062.44;5000936;28;20033;-92
2024/02/03 05:01:01;;;;;;;0.13;0.13;;;;;;;5.67;58.23;102063.25;5033262;28;20029;-92
2024/02/03 05:03:26;;;;;;;0.10;0.10;;;;;;;5.58;58.20;102053.03;5033446;28;20463;-92
2024/02/03 05:05:52;;;;;;;0.20;0.20;;;;;;;5.47;58.25;102051.38;5031965;28;20025;-91
2024/02/03 05:08:18;;;;;;;0.20;0.20;;;;;;;5.36;57.88;102037.75;5016934;28;20045;-92
2024/02/03 05:10:44;;;;;;;0.20;0.20;;;;;;;5.41;58.47;102056.56;5016743;28;20022;-92
2024/02/03 05:13:09;;;;;;;0.20;0.20;;;;;;;5.44;58.48;102053.97;5016717;28;20037;-90
2024/02/03 05:15:35;;;;;;;0.20;0.20;;;;;;;5.30;58.35;102032.63;5016744;28;20453;-92
2024/02/03 05:18:01;;;;;;;0.20;0.20;;;;;;;5.51;58.14;102064.22;5033076;28;20022;-92
2024/02/03 05:20:26;;;;;;;0.20;0.20;;;;;;;5.61;58.04;102059.03;5016025;28;20045;-92
2024/02/03 05:22:53;;;;;;;0.20;0.20;;;;;;;5.60;57.87;102059.00;5016364;28;20032;-91
2024/02/03 05:25:19;;;;;;;0.20;0.20;;;;;;;5.67;57.34;102058.13;5033056;28;20022;-92
2024/02/03 05:27:45;;;;;;;0.20;0.20;;;;;;;5.66;57.44;102061.53;5033267;28;20044;-92
2024/02/03 05:30:11;;;;;;;0.20;0.20;;;;;;;5.75;57.21;102061.50;5016636;28;20112;-91
2024/02/03 05:32:37;;;;;;;0.20;0.20;;;;;;;5.72;57.31;102053.81;5016395;28;20033;-90
2024/02/03 05:35:02;;;;;;;0.20;0.20;;;;;;;5.88;56.80;102055.41;5015997;28;20037;-92
2024/02/03 05:37:28;;;;;;;0.20;0.20;;;;;;;5.82;56.66;102052.91;5016255;28;20071;-91
2024/02/03 05:39:53;;;;;;;0.20;0.20;;;;;;;5.74;56.57;102026.41;5016309;28;20479;-91
2024/02/03 05:42:19;;;;;;;0.20;0.20;;;;;;;5.90;56.20;102045.13;5032698;28;20385;-92
2024/02/03 05:44:44;;;;;;;0.20;0.20;;;;;;;5.88;56.29;102052.00;5032482;28;20506;-90
2024/02/03 05:47:10;;;;;;;0.20;0.20;;;;;;;5.79;55.65;102041.78;4999757;28;20479;-92
2024/02/03 05:49:35;;;;;;;0.20;0.20;;;;;;;5.92;55.86;102064.84;5016158;28;20030;-91
2024/02/03 05:52:02;;;;;;;0.20;0.20;;;;;;;6.01;55.31;102048.53;5032682;28;20021;-91
2024/02/03 05:54:28;;;;;;;0.20;0.20;;;;;;;6.02;55.63;102055.34;5032514;28;20053;-92
2024/02/03 05:56:53;;;;;;;0.20;0.20;;;;;;;5.99;55.05;102040.81;4999672;28;20483;-91
2024/02/03 05:59:19;;;;;;;0.20;0.20;;;;;;;6.01;55.37;102045.94;5015850;28;20052;-91
2024/02/03 06:01:44;;;;;;;0.20;0.20;;;;;;;6.13;54.76;102047.56;5015487;28;20116;-92
2024/02/03 06:04:10;;;;;;;0.20;0.20;;;;;;;6.14;54.72;102054.41;5015461;28;20123;-93
2024/02/03 06:06:37;;;;;;;0.10;0.10;;;;;;;6.11;54.86;102045.00;5032464;28;20037;-92
2024/02/03 06:09:03;;;;;;;0.20;0.20;;;;;;;6.10;54.73;102051.03;5031970;28;20021;-92
2024/02/03 06:11:29;;;;;;;0.10;0.10;;;;;;;6.11;54.53;102050.16;5015729;28;20033;-91
2024/02/03 06:13:54;;;;;;;0.15;0.15;;;;;;;6.10;54.83;102042.47;4999534;28;20083;-92
2024/02/03 06:16:20;;;;;;;0.20;0.20;;;;;;;6.11;54.65;102033.88;5015988;28;20037;-91
2024/02/03 06:18:45;;;;;;;0.20;0.20;;;;;;;6.07;54.54;102024.47;5032011;28;20028;-92
2024/02/03 06:21:12;;;;;;;0.10;0.10;;;;;;;6.04;54.64;102033.06;5032168;28;20052;-92
2024/02/03 06:23:38;;;;;;;0.20;0.20;;;;;;;6.07;54.57;102025.34;5015778;28;20052;-92
2024/02/03 06:26:03;;;;;;;0.20;0.20;;;;;;;6.06;54.60;102027.91;5031796;28;20026;-92
2024/02/03 06:28:29;;;;;;;0.20;0.20;;;;;;;6.03;54.49;102021.94;5015449;28;20495;-91
2024/02/03 06:30:54;;;;;;;0.20;0.20;;;;;;;5.88;54.61;102024.59;5015200;28;20029;-91
2024/02/03 06:33:20;;;;;;;0.20;0.20;;;;;;;5.91;54.78;102022.06;5015033;28;20033;-92
2024/02/03 06:35:46;;;;;;;0.20;0.20;;;;;;;5.97;54.71;102016.84;5031805;28;20543;-92
2024/02/03 06:38:11;;;;;;;0.20;0.20;;;;;;;6.03;54.64;102024.50;5015533;28;20084;-92
2024/02/03 06:40:37;;;;;;;0.20;0.20;;;;;;;6.06;54.32;102025.34;5031749;28;20475;-92
2024/02/03 06:43:03;;;;;;;0.20;0.20;;;;;;;6.06;54.05;102018.50;5015228;28;20109;-91
2024/02/03 06:45:29;;;;;;;0.20;0.20;;;;;;;6.03;54.07;102024.50;5031792;28;20395;-92
2024/02/03 06:47:54;;;;;;;0.10;0.10;;;;;;;6.09;54.13;102025.31;4998527;28;20128;-92
2024/02/03 06:50:20;;;;;;;0.20;0.20;;;;;;;6.11;53.88;102023.63;5014906;28;20498;-91
2024/02/03 06:52:45;;;;;;;0.20;0.20;;;;;;;6.20;53.75;102018.41;5015114;28;20099;-92
2024/02/03 06:55:11;;;;;;;0.20;0.20;;;;;;;6.16;53.49;102011.56;5031476;28;20384;-91
2024/02/03 06:57:37;;;;;;;0.20;0.20;;;;;;;6.22;53.31;102019.22;5031338;28;20029;-92
2024/02/03 07:00:03;;;;;;;0.20;0.20;;;;;;;6.30;53.13;102014.88;4998339;28;20029;-92
2024/02/03 07:02:29;;;;;;;0.20;0.20;;;;;;;6.42;52.89;102014.75;5014192;28;20063;-92
2024/02/03 07:04:55;;;;;;;0.20;0.20;;;;;;;6.48;52.02;102003.53;5036028;28;20029;-92
2024/02/03 07:07:20;;;;;;;0.20;0.20;;;;;;;6.52;52.01;102005.25;5017139;28;20032;-92
2024/02/03 07:09:46;;;;;;;0.20;0.20;;;;;;;6.56;52.57;101996.59;4998646;28;20491;-92
2024/02/03 07:12:12;;;;;;;0.20;0.20;;;;;;;6.51;52.24;102004.38;5031141;28;20381;-92
2024/02/03 07:14:37;;;;;;;0.20;0.20;;;;;;;6.56;52.34;101988.91;5032121;28;20022;-91
2024/02/03 07:17:03;;;;;;;0.20;0.20;;;;;;;6.73;51.88;102011.88;5014372;28;20025;-91
2024/02/03 07:19:29;;;;;;;0.20;0.20;;;;;;;6.85;51.32;101996.28;5014540;28;20061;-91
2024/02/03 07:21:54;;;;;;;0.20;0.20;;;;;;;6.99;50.71;102007.28;5015069;28;20056;-92
2024/02/03 07:24:20;;;;;;;0.20;0.20;;;;;;;7.18;50.22;102013.06;4998608;28;20483;-91
2024/02/03 07:26:45;;;;;;;0.20;0.20;;;;;;;7.23;50.26;102010.41;5014869;28;20100;-92
2024/02/03 07:29:11;;;;;;;0.10;0.10;;;;;;;7.19;49.55;102010.47;5032129;28;20083;-92
2024/02/03 07:31:36;;;;;;;0.10;0.10;;;;;;;7.23;49.90;102003.53;5014435;28;20045;-91
2024/02/03 07:34:02;;;;;;;0.20;0.20;;;;;;;7.31;49.40;102009.44;5031305;28;20472;-92
2024/02/03 07:36:27;;;;;;;0.20;0.20;;;;;;;7.31;49.59;102008.59;5031457;28;20034;-92
2024/02/03 07:38:53;;;;;;;0.20;0.20;;;;;;;7.42;49.68;102009.28;5015042;28;20092;-91
2024/02/03 07:41:19;;;;;;;0.10;0.10;;;;;;;7.61;48.93;102008.16;5031062;28;20029;-92
2024/02/03 07:43:45;;;;;;;0.20;0.20;;;;;;;7.79;48.36;101998.47;4998510;28;20030;-92
2024/02/03 07:46:11;;;;;;;0.20;0.20;;;;;;;8.00;47.87;101995.53;5031192;28;20079;-93
2024/02/03 07:48:37;;;;;;;0.20;0.20;;;;;;;8.19;47.27;101996.09;5014182;28;20040;-92
2024/02/03 07:51:02;;;;;;;0.20;0.20;;;;;;;8.23;46.77;101997.72;5015043;28;20029;-92
2024/02/03 07:53:28;;;;;;;0.20;0.20;;;;;;;8.27;46.59;101997.66;5031449;28;20558;-92
2024/02/03 07:55:53;;;;;;;0.20;0.20;;;;;;;8.35;46.55;101994.94;4998554;28;20026;-91
2024/02/03 07:58:19;;;;;;;0.20;0.20;;;;;;;8.33;46.39;101992.38;5014609;28;20033;-92
2024/02/03 08:00:45;;;;;;;0.20;0.20;;;;;;;8.18;46.29;101990.09;5030420;28;20029;-91
2024/02/03 08:03:11;;;;;;;0.20;0.20;;;;;;;8.25;46.69;101993.38;5031075;28;20100;-92
2024/02/03 08:05:37;;;;;;;0.20;0.20;;;;;;;8.43;47.17;101990.50;5030970;28;20025;-92
2024/02/03 08:08:03;;;;;;;0.20;0.20;;;;;;;8.50;47.30;102005.00;5014165;28;20029;-91
2024/02/03 08:10:28;;;;;;;0.20;0.20;;;;;;;8.58;46.48;102005.72;5013934;28;20026;-92
2024/02/03 08:12:54;;;;;;;0.20;0.20;;;;;;;8.63;46.54;102006.47;5030542;28;20487;-93
2024/02/03 08:15:20;;;;;;;0.20;0.20;;;;;;;8.71;46.20;102006.34;5014012;28;20036;-92
2024/02/03 08:17:45;;;;;;;0.20;0.20;;;;;;;8.75;45.92;101997.66;5030456;28;20033;-93
2024/02/03 08:20:12;;;;;;;0.20;0.20;;;;;;;8.59;46.14;102002.25;5014209;28;20049;-92
2024/02/03 08:22:38;;;;;;;0.20;0.20;;;;;;;8.72;46.16;101999.44;5030212;28;20057;-92
2024/02/03 08:25:04;;;;;;;0.20;0.20;;;;;;;8.53;45.79;101978.28;5030289;28;20029;-91
2024/02/03 08:27:30;;;;;;;0.20;0.20;;;;;;;8.62;45.61;102001.34;5030420;28;20029;-91
2024/02/03 08:29:55;;;;;;;0.20;0.20;;;;;;;8.72;45.69;101999.44;5030059;28;20411;-90
2024/02/03 08:32:21;;;;;;;0.20;0.20;;;;;;;8.77;45.08;101998.47;5014781;28;20025;-91
2024/02/03 08:34:47;;;;;;;0.20;0.20;;;;;;;8.81;45.35;102002.69;5015945;28;20026;-92
2024/02/03 08:37:12;;;;;;;0.20;0.20;;;;;;;8.77;45.17;102003.63;5014684;28;20036;-93
2024/02/03 08:39:38;;;;;;;0.20;0.20;;;;;;;8.75;45.10;101995.09;5015376;28;20032;-92
2024/02/03 08:42:04;;;;;;;0.20;0.20;;;;;;;8.73;45.19;102007.16;5017502;28;20033;-92
2024/02/03 08:44:29;;;;;;;0.20;0.20;;;;;;;8.90;45.08;101992.19;5017005;28;20057;-93
2024/02/03 08:46:55;;;;;;;0.20;0.20;;;;;;;9.10;45.56;101999.53;5017565;28;20487;-92
2024/02/03 08:49:20;;;;;;;0.20;0.20;;;;;;;9.22;44.60;101995.81;5001534;28;20726;-92
2024/02/03 08:51:46;;;;;;;0.20;0.20;;;;;;;9.36;43.88;101996.38;5017999;28;20487;-92
2024/02/03 08:54:11;;;;;;;0.20;0.20;;;;;;;9.47;43.72;101986.66;5033695;28;20384;-92
2024/02/03 08:56:37;;;;;;;0.20;0.20;;;;;;;9.54;44.09;101983.91;5017187;28;20022;-90
2024/02/03 08:59:02;;;;;;;0.20;0.20;;;;;;;9.67;43.64;101980.19;5016867;28;20021;-92
2024/02/03 09:01:28;;;;;;;0.20;0.20;;;;;;;9.79;43.17;101977.31;5033283;28;20029;-92
2024/02/03 09:03:54;;;;;;;0.20;0.20;;;;;;;9.90;43.33;101984.78;5034318;28;20026;-91
2024/02/03 09:06:19;;;;;;;0.20;0.20;;;;;;;10.05;43.62;101969.75;5000398;28;20036;-92
2024/02/03 09:08:45;;;;;;;0.20;0.20;;;;;;;10.26;43.10;101977.88;5016856;28;20498;-92
2024/02/03 09:11:10;;;;;;;0.20;0.20;;;;;;;10.28;42.81;101976.09;5033534;28;20404;-91
2024/02/03 09:13:36;;;;;;;0.20;0.20;;;;;;;10.28;43.38;101966.59;5033050;28;20034;-93
2024/02/03 09:16:02;;;;;;;0.20;0.20;;;;;;;10.31;43.12;101960.50;5000517;28;20396;-92
2024/02/03 09:18:27;;;;;;;0.20;0.20;;;;;;;10.26;43.56;101963.22;5017046;28;20026;-92
2024/02/03 09:20:53;;;;;;;0.20;0.20;;;;;;;10.36;43.35;101950.88;5016315;28;20084;-92
2024/02/03 09:23:18;;;;;;;0.20;0.20;;;;;;;10.62;43.45;101955.34;5016232;28;20061;-92
2024/02/03 09:25:44;;;;;;;0.20;0.20;;;;;;;10.79;42.96;101954.88;5000918;28;20029;-92
2024/02/03 09:28:09;;;;;;;0.20;0.20;;;;;;;10.78;43.20;101958.34;5016563;28;20415;-92
2024/02/03 09:30:35;;;;;;;0.20;0.20;;;;;;;10.80;43.31;101928.06;5016577;28;20029;-93
2024/02/03 09:33:01;;;;;;;0.20;0.20;;;;;;;10.76;42.97;101952.38;5034011;28;20025;-93
2024/02/03 09:35:27;;;;;;;0.20;0.20;;;;;;;10.87;42.90;101948.56;5033217;28;20029;-93
2024/02/03 09:37:52;;;;;;;0.20;0.20;;;;;;;10.89;42.79;101938.16;5033522;28;20036;-93
2024/02/03 09:40:21;;;;;;;0.20;0.20;;;;;;;10.88;42.67;101928.72;5000761;28;20478;-92
2024/02/03 09:42:50;;;;;;;0.20;0.20;;;;;;;11.08;42.69;101925.53;5032725;28;20424;-93
2024/02/03 09:45:16;;;;;;;0.20;0.20;;;;;;;11.21;42.92;101916.50;5000086;28;20082;-93
2024/02/03 09:47:42;;;;;;;0.20;0.20;;;;;;;11.14;42.64;101921.00;5016833;28;20037;-92
2024/02/03 09:50:08;;;;;;;0.20;0.20;;;;;;;11.18;42.92;101894.13;4999907;28;20104;-92
2024/02/03 09:52:34;;;;;;;0.20;0.20;;;;;;;11.38;42.71;101897.81;5016142;28;20026;-92
2024/02/03 09:55:00;;;;;;;0.20;0.20;;;;;;;11.40;42.04;101883.91;5016120;28;20030;-93
2024/02/03 09:57:26;;;;;;;0.20;0.20;;;;;;;11.62;42.10;101871.13;5015455;28;20029;-91
2024/02/03 09:59:52;;;;;;;0.20;0.20;;;;;;;11.47;42.79;101876.78;5015761;28;20523;-92
2024/02/03 10:02:18;;;;;;;0.20;0.20;;;;;;;11.56;42.64;101870.47;5016210;28;20029;-92
2024/02/03 10:04:47;;;;;;;0.20;0.20;;;;;;;11.48;43.38;101860.34;5015801;28;20494;-92
2024/02/03 10:07:17;;;;;;;0.20;0.20;;;;;;;11.51;43.39;101844.72;4999928;28;20033;-92
2024/02/03 10:09:42;;;;;;;0.20;0.20;;;;;;;11.62;43.10;101834.84;5015931;28;20036;-93
2024/02/03 10:12:18;;;;;;;0.20;0.20;;;;;;;11.40;42.95;101834.69;5031879;28;21190;-93
2024/02/03 10:14:44;;;;;;;0.20;0.20;;;;;;;11.54;43.09;101842.00;4999459;28;20030;-92
2024/02/03 10:17:10;;;;;;;0.20;0.20;;;;;;;11.54;42.82;101826.47;4999696;28;20471;-93
2024/02/03 10:19:35;;;;;;;0.20;0.20;;;;;;;11.66;43.19;101833.81;5015688;28;20072;-92
2024/02/03 10:22:01;;;;;;;0.20;0.20;;;;;;;11.25;43.20;101835.19;5015858;28;20033;-92
2024/02/03 10:24:28;;;;;;;0.20;0.20;;;;;;;11.22;43.39;101819.75;5015671;28;20029;-92
2024/02/03 10:27:04;;;;;;;0.20;0.20;;;;;;;11.23;43.50;101812.84;5000545;28;20040;-92
2024/02/03 10:29:29;;;;;;;0.20;0.20;;;;;;;11.17;43.70;101825.06;4999541;28;20021;-92
2024/02/03 10:31:55;;;;;;;0.20;0.20;;;;;;;11.13;44.29;101802.78;5015324;28;20064;-93
2024/02/03 10:34:21;;;;;;;0.20;0.20;;;;;;;11.31;43.72;101797.91;4998865;28;20026;-91
2024/02/03 10:36:46;;;;;;;0.20;0.20;;;;;;;11.41;43.48;101794.09;5031679;28;20056;-92
2024/02/03 10:39:12;;;;;;;0.20;0.20;;;;;;;11.38;43.15;101794.19;5014780;28;20112;-91
2024/02/03 10:41:39;;;;;;;0.20;0.20;;;;;;;11.49;43.64;101787.72;5031421;28;20025;-92
2024/02/03 10:44:05;;;;;;;0.20;0.20;;;;;;;11.62;43.27;101787.34;5014978;28;20022;-92
2024/02/03 10:46:31;;;;;;;0.20;0.20;;;;;;;11.89;43.26;101785.53;5015033;28;20037;-93
2024/02/03 10:48:57;;;;;;;0.20;0.20;;;;;;;12.13;42.79;101782.06;4998652;28;20522;-92
2024/02/03 10:51:23;;;;;;;0.20;0.20;;;;;;;12.20;41.97;101791.31;5015007;28;20022;-92
2024/02/03 10:53:55;;;;;;;0.20;0.20;;;;;;;12.31;41.92;101776.19;5014920;28;20040;-93
2024/02/03 10:56:23;;;;;;;0.20;0.20;;;;;;;12.45;41.83;101760.06;5015128;28;20018;-92
2024/02/03 10:58:48;;;;;;;0.20;0.20;;;;;;;12.53;41.50;101764.97;5015246;28;20051;-93
2024/02/03 11:01:17;;;;;;;0.20;0.20;;;;;;;12.70;41.74;101753.94;5014681;28;20112;-92
2024/02/03 11:03:42;;;;;;;0.20;0.20;;;;;;;12.71;40.80;101753.88;5014407;28;20460;-92
2024/02/03 11:06:08;;;;;;;0.20;0.20;;;;;;;12.75;40.64;101763.22;5032478;28;20114;-93
2024/02/03 11:08:34;;;;;;;0.20;0.20;;;;;;;12.83;40.54;101760.31;5030745;28;20124;-93
2024/02/03 11:10:59;;;;;;;0.20;0.20;;;;;;;12.72;40.26;101714.00;5014616;28;20034;-93
2024/02/03 11:13:27;;;;;;;0.20;0.20;;;;;;;13.02;39.98;101730.09;5030811;28;20551;-93
2024/02/03 11:15:59;;;;;;;0.20;0.20;;;;;;;13.11;40.02;101723.66;5014857;28;20040;-92
2024/02/03 11:18:25;;;;;;;0.20;0.20;;;;;;;12.94;39.93;101726.94;5014801;28;20501;-92
2024/02/03 11:20:56;;;;;;;0.20;0.20;;;;;;;13.18;40.19;101714.72;5014301;28;20042;-92
2024/02/03 11:23:25;;;;;;;0.20;0.20;;;;;;;13.10;40.28;101719.38;5014809;28;20034;-92
2024/02/03 11:25:52;;;;;;;0.20;0.20;;;;;;;13.26;39.79;101709.19;4998016;28;20073;-92